createdAt,value
2023-01-19T00:00:30.676Z,59.74
2023-01-19T00:01:27.611Z,60.39
2023-01-19T00:02:24.441Z,60.39
2023-01-19T00:03:21.775Z,60.08
2023-01-19T00:04:18.711Z,59.81
2023-01-19T00:05:15.585Z,59.82
2023-01-19T00:06:12.904Z,60.00
2023-01-19T00:07:09.729Z,59.83
2023-01-19T00:08:14.975Z,59.68
2023-01-19T00:09:12.425Z,59.30
2023-01-19T00:10:10.627Z,59.82
2023-01-19T00:11:07.487Z,59.28
2023-01-19T00:12:05.391Z,59.23
2023-01-19T00:13:02.570Z,59.37
2023-01-19T00:13:59.670Z,59.45
2023-01-19T00:14:56.492Z,59.65
2023-01-19T00:15:53.451Z,59.29
2023-01-19T00:16:50.228Z,59.41
2023-01-19T00:17:47.084Z,59.77
2023-01-19T00:18:44.994Z,60.45
2023-01-19T00:19:41.972Z,60.37
2023-01-19T00:20:40.677Z,60.50
2023-01-19T00:21:37.565Z,60.22
2023-01-19T00:22:34.385Z,60.11
2023-01-19T00:23:31.162Z,60.77
2023-01-19T00:24:27.998Z,60.01
2023-01-19T00:25:24.901Z,60.64
2023-01-19T00:26:22.417Z,60.88
2023-01-19T00:27:19.409Z,60.14
2023-01-19T00:28:18.251Z,61.44
2023-01-19T00:29:15.734Z,61.14
2023-01-19T00:30:12.927Z,60.78
2023-01-19T00:31:10.045Z,59.63
2023-01-19T00:32:07.152Z,59.67
2023-01-19T00:33:04.299Z,59.23
2023-01-19T00:34:01.208Z,60.05
2023-01-19T00:34:57.932Z,59.49
2023-01-19T00:35:57.408Z,58.98
2023-01-19T00:36:54.269Z,58.84
2023-01-19T00:37:51.065Z,58.85
2023-01-19T00:38:47.887Z,58.40
2023-01-19T00:39:44.630Z,58.43
2023-01-19T00:40:41.385Z,58.15
2023-01-19T00:41:56.866Z,57.48
2023-01-19T00:42:53.912Z,58.21
2023-01-19T00:43:50.835Z,58.26
2023-01-19T00:44:47.842Z,58.01
2023-01-19T00:45:45.942Z,57.58
2023-01-19T00:46:42.739Z,57.20
2023-01-19T00:47:39.823Z,57.27
2023-01-19T00:48:36.706Z,57.81
2023-01-19T00:49:33.429Z,57.54
2023-01-19T00:50:31.602Z,57.79
2023-01-19T00:51:28.368Z,57.67
2023-01-19T00:52:25.120Z,57.36
2023-01-19T00:53:21.986Z,56.88
2023-01-19T00:54:18.693Z,56.67
2023-01-19T00:55:16.758Z,56.69
2023-01-19T00:56:13.488Z,57.38
2023-01-19T00:57:10.241Z,56.79
2023-01-19T00:58:07.363Z,56.47
2023-01-19T00:59:05.081Z,56.95
2023-01-19T01:00:02.323Z,56.21
2023-01-19T01:01:03.698Z,56.44
2023-01-19T01:02:00.866Z,55.90
2023-01-19T01:02:58.064Z,55.79
2023-01-19T01:03:55.989Z,56.04
2023-01-19T01:04:55.077Z,56.01
2023-01-19T01:05:51.865Z,56.27
2023-01-19T01:06:48.698Z,55.89
2023-01-19T01:07:45.872Z,55.50
2023-01-19T01:08:42.671Z,55.98
2023-01-19T01:09:39.439Z,56.23
2023-01-19T01:10:36.338Z,55.87
2023-01-19T01:11:33.186Z,55.84
2023-01-19T01:12:29.988Z,55.80
2023-01-19T01:13:28.242Z,55.89
2023-01-19T01:14:25.559Z,55.94
2023-01-19T01:15:22.950Z,56.21
2023-01-19T01:16:20.329Z,55.80
2023-01-19T01:17:17.180Z,56.74
2023-01-19T01:18:14.004Z,55.67
2023-01-19T01:19:10.878Z,56.08
2023-01-19T01:20:08.208Z,56.05
2023-01-19T01:21:06.985Z,55.42
2023-01-19T01:22:04.569Z,55.72
2023-01-19T01:23:01.771Z,56.23
2023-01-19T01:23:58.946Z,55.92
2023-01-19T01:24:55.771Z,55.67
2023-01-19T01:25:52.578Z,55.55
2023-01-19T01:26:49.476Z,55.34
2023-01-19T01:27:46.275Z,55.37
2023-01-19T01:28:43.042Z,55.46
2023-01-19T01:29:41.265Z,55.76
2023-01-19T01:30:41.284Z,55.15
2023-01-19T01:31:38.148Z,54.97
2023-01-19T01:32:35.048Z,55.61
2023-01-19T01:33:40.519Z,55.41
2023-01-19T01:34:38.433Z,55.59
2023-01-19T01:35:35.337Z,55.76
2023-01-19T01:36:33.510Z,55.69
2023-01-19T01:37:31.113Z,55.43
2023-01-19T01:38:27.948Z,55.95
2023-01-19T01:39:24.817Z,56.27
2023-01-19T01:40:21.698Z,55.67
2023-01-19T01:41:18.805Z,56.52
2023-01-19T01:42:25.177Z,56.33
2023-01-19T01:43:22.187Z,55.93
2023-01-19T01:44:49.831Z,55.34
2023-01-19T01:45:47.276Z,55.09
2023-01-19T01:46:44.082Z,55.23
2023-01-19T01:47:45.792Z,54.86
2023-01-19T01:49:10.175Z,55.39
2023-01-19T01:50:28.649Z,54.90
2023-01-19T01:51:29.209Z,55.01
2023-01-19T01:52:29.616Z,55.21
2023-01-19T01:53:29.629Z,55.18
2023-01-19T01:54:32.380Z,55.04
2023-01-19T01:55:32.669Z,54.90
2023-01-19T01:56:52.391Z,55.00
2023-01-19T01:57:57.631Z,55.07
2023-01-19T01:58:54.761Z,54.89
2023-01-19T01:59:51.679Z,55.43
2023-01-19T02:01:07.561Z,54.95
2023-01-19T02:02:37.965Z,55.00
2023-01-19T02:03:36.035Z,54.47
2023-01-19T02:04:33.113Z,54.44
2023-01-19T02:05:34.914Z,54.62
2023-01-19T02:06:31.912Z,54.69
2023-01-19T02:08:09.739Z,54.76
2023-01-19T02:09:29.574Z,53.69
2023-01-19T02:10:45.087Z,54.19
2023-01-19T02:12:01.475Z,53.68
2023-01-19T02:13:17.130Z,53.35
2023-01-19T02:14:13.932Z,54.20
2023-01-19T02:15:20.600Z,53.96
2023-01-19T02:16:18.021Z,53.30
2023-01-19T02:17:14.951Z,53.35
2023-01-19T02:18:11.930Z,53.76
2023-01-19T02:19:16.844Z,53.53
2023-01-19T02:20:14.513Z,53.27
2023-01-19T02:21:30.135Z,53.28
2023-01-19T02:22:44.476Z,53.01
2023-01-19T02:23:45.299Z,52.80
2023-01-19T02:24:43.364Z,53.25
2023-01-19T02:25:40.655Z,52.91
2023-01-19T02:26:42.894Z,52.49
2023-01-19T02:27:40.040Z,52.79
2023-01-19T02:28:42.336Z,52.49
2023-01-19T02:29:39.994Z,52.07
2023-01-19T02:30:41.166Z,52.05
2023-01-19T02:31:40.374Z,51.96
2023-01-19T02:32:37.445Z,52.16
2023-01-19T02:33:34.738Z,51.24
2023-01-19T02:34:32.545Z,51.93
2023-01-19T02:35:32.414Z,52.06
2023-01-19T02:36:38.287Z,52.08
2023-01-19T02:37:40.253Z,51.72
2023-01-19T02:38:40.446Z,51.91
2023-01-19T02:39:42.474Z,51.79
2023-01-19T02:40:43.636Z,51.95
2023-01-19T02:41:46.650Z,51.88
2023-01-19T02:42:50.714Z,51.77
2023-01-19T02:43:49.836Z,51.58
2023-01-19T02:44:50.963Z,51.77
2023-01-19T02:45:48.345Z,51.58
2023-01-19T02:46:45.454Z,51.74
2023-01-19T02:47:46.773Z,51.42
2023-01-19T02:48:44.023Z,51.88
2023-01-19T02:49:40.895Z,51.72
2023-01-19T02:50:50.513Z,51.13
2023-01-19T02:51:47.537Z,50.91
2023-01-19T02:52:44.461Z,50.53
2023-01-19T02:54:04.827Z,50.89
2023-01-19T02:56:32.494Z,51.10
2023-01-19T02:57:32.039Z,50.97
2023-01-19T02:59:05.801Z,50.81
2023-01-19T03:01:46.456Z,50.68
2023-01-19T03:02:56.965Z,50.38
2023-01-19T03:04:01.937Z,51.11
2023-01-19T03:05:24.644Z,50.93
2023-01-19T03:06:44.909Z,50.92
2023-01-19T03:08:06.691Z,50.72
2023-01-19T03:09:25.108Z,50.62
2023-01-19T03:10:46.531Z,50.68
2023-01-19T03:11:55.912Z,50.62
2023-01-19T03:13:04.326Z,50.59
2023-01-19T03:14:11.592Z,50.89
2023-01-19T03:15:37.604Z,50.52
2023-01-19T03:16:50.493Z,50.40
2023-01-19T03:17:51.555Z,50.13
2023-01-19T03:18:55.940Z,49.82
2023-01-19T03:19:54.336Z,49.61
2023-01-19T03:20:55.740Z,49.78
2023-01-19T03:22:23.644Z,49.81
2023-01-19T03:23:26.138Z,50.10
2023-01-19T03:24:26.575Z,50.34
2023-01-19T03:25:26.214Z,49.90
2023-01-19T03:26:29.854Z,50.04
2023-01-19T03:27:32.317Z,50.43
2023-01-19T03:28:32.217Z,49.63
2023-01-19T03:29:34.951Z,49.93
2023-01-19T03:30:39.549Z,49.72
2023-01-19T03:31:39.599Z,49.13
2023-01-19T03:32:48.351Z,49.32
2023-01-19T03:33:57.733Z,49.50
2023-01-19T03:35:00.006Z,49.44
2023-01-19T03:36:12.242Z,49.91
2023-01-19T03:37:11.705Z,49.78
2023-01-19T03:38:15.465Z,49.57
2023-01-19T03:39:19.117Z,50.08
2023-01-19T03:40:16.540Z,49.90
2023-01-19T03:41:19.356Z,49.93
2023-01-19T03:42:18.466Z,49.73
2023-01-19T03:43:17.463Z,50.01
2023-01-19T03:44:14.474Z,50.03
2023-01-19T03:45:14.323Z,49.83
2023-01-19T03:46:13.064Z,49.64
2023-01-19T03:47:14.195Z,49.68
2023-01-19T03:48:11.145Z,49.68
2023-01-19T03:49:09.780Z,50.05
2023-01-19T03:50:17.034Z,49.71
2023-01-19T03:51:16.069Z,50.01
2023-01-19T03:52:12.988Z,50.31
2023-01-19T03:53:15.238Z,50.23
2023-01-19T03:54:12.548Z,49.89
2023-01-19T03:55:10.417Z,49.71
2023-01-19T03:56:17.925Z,49.96
2023-01-19T03:57:14.717Z,49.85
2023-01-19T03:58:11.611Z,49.78
2023-01-19T03:59:08.398Z,49.91
2023-01-19T04:00:05.739Z,49.25
2023-01-19T04:01:04.158Z,49.31
2023-01-19T04:02:01.121Z,49.95
2023-01-19T04:02:58.689Z,49.53
2023-01-19T04:03:55.868Z,49.77
2023-01-19T04:04:52.872Z,49.59
2023-01-19T04:05:49.749Z,49.90
2023-01-19T04:06:46.584Z,49.56
2023-01-19T04:07:43.485Z,49.63
2023-01-19T04:08:40.826Z,49.98
2023-01-19T04:09:37.696Z,49.40
2023-01-19T04:10:34.595Z,49.28
2023-01-19T04:11:31.839Z,49.21
2023-01-19T04:12:28.591Z,49.26
2023-01-19T04:13:28.243Z,49.13
2023-01-19T04:14:25.086Z,48.98
2023-01-19T04:15:24.940Z,48.73
2023-01-19T04:16:21.901Z,49.06
2023-01-19T04:17:19.046Z,49.31
2023-01-19T04:18:15.784Z,48.74
2023-01-19T04:19:12.654Z,49.45
2023-01-19T04:20:09.942Z,49.34
2023-01-19T04:21:08.166Z,48.89
2023-01-19T04:22:04.996Z,48.47
2023-01-19T04:23:02.412Z,48.44
2023-01-19T04:23:59.766Z,48.81
2023-01-19T04:24:56.546Z,48.40
2023-01-19T04:26:04.457Z,48.75
2023-01-19T04:27:01.296Z,48.10
2023-01-19T04:27:58.511Z,48.12
2023-01-19T04:28:58.179Z,48.30
2023-01-19T04:29:54.919Z,48.03
2023-01-19T04:30:52.382Z,48.11
2023-01-19T04:31:49.154Z,47.74
2023-01-19T04:32:46.087Z,47.92
2023-01-19T04:33:42.806Z,48.36
2023-01-19T04:34:39.574Z,47.73
2023-01-19T04:35:36.345Z,48.12
2023-01-19T04:36:33.201Z,48.35
2023-01-19T04:37:30.070Z,48.04
2023-01-19T04:38:27.493Z,47.81
2023-01-19T04:39:24.314Z,48.13
2023-01-19T04:40:21.145Z,47.78
2023-01-19T04:41:18.737Z,48.73
2023-01-19T04:42:16.933Z,48.29
2023-01-19T04:43:14.330Z,48.29
2023-01-19T04:44:11.193Z,47.91
2023-01-19T04:45:12.379Z,47.91
2023-01-19T04:46:09.231Z,47.44
2023-01-19T04:47:06.061Z,47.19
2023-01-19T04:48:04.399Z,47.42
2023-01-19T04:49:01.286Z,47.18
2023-01-19T04:49:58.191Z,47.29
2023-01-19T04:50:54.981Z,47.45
2023-01-19T04:51:54.708Z,47.27
2023-01-19T04:52:51.532Z,47.45
2023-01-19T04:53:48.366Z,46.89
2023-01-19T04:54:45.280Z,47.35
2023-01-19T04:55:42.239Z,46.87
2023-01-19T04:56:40.930Z,47.52
2023-01-19T04:57:50.021Z,47.10
2023-01-19T04:58:46.860Z,47.42
2023-01-19T04:59:43.672Z,47.60
2023-01-19T05:00:40.675Z,47.12
2023-01-19T05:01:37.575Z,47.57
2023-01-19T05:02:35.180Z,47.15
2023-01-19T05:03:32.150Z,46.86
2023-01-19T05:04:29.191Z,47.79
2023-01-19T05:05:27.469Z,47.29
2023-01-19T05:06:24.337Z,47.20
2023-01-19T05:07:21.257Z,47.13
2023-01-19T05:08:18.185Z,47.54
2023-01-19T05:09:15.515Z,47.57
2023-01-19T05:10:12.835Z,47.21
2023-01-19T05:11:09.784Z,47.59
2023-01-19T05:12:06.619Z,47.46
2023-01-19T05:13:04.436Z,47.42
2023-01-19T05:14:01.303Z,47.18
2023-01-19T05:14:58.072Z,47.10
2023-01-19T05:15:54.920Z,46.99
2023-01-19T05:16:51.784Z,47.33
2023-01-19T05:17:48.593Z,47.84
2023-01-19T05:18:45.390Z,47.40
2023-01-19T05:19:42.238Z,47.47
2023-01-19T05:20:40.143Z,47.19
2023-01-19T05:21:36.941Z,47.62
2023-01-19T05:22:33.847Z,47.35
2023-01-19T05:23:32.789Z,47.60
2023-01-19T05:24:29.888Z,47.74
2023-01-19T05:25:26.653Z,47.58
2023-01-19T05:26:23.516Z,47.66
2023-01-19T05:27:20.487Z,47.60
2023-01-19T05:28:17.286Z,48.25
2023-01-19T05:29:14.477Z,47.94
2023-01-19T05:30:13.047Z,48.17
2023-01-19T05:31:10.031Z,48.50
2023-01-19T05:32:07.113Z,48.41
2023-01-19T05:33:04.023Z,48.59
2023-01-19T05:34:00.898Z,48.59
2023-01-19T05:34:57.730Z,48.65
2023-01-19T05:35:55.568Z,48.49
2023-01-19T05:36:53.668Z,48.39
2023-01-19T05:37:50.811Z,48.26
2023-01-19T05:38:47.720Z,48.32
2023-01-19T05:39:44.536Z,48.31
2023-01-19T05:40:41.336Z,48.29
2023-01-19T05:41:38.130Z,48.01
2023-01-19T05:42:34.955Z,48.40
2023-01-19T05:43:32.042Z,47.78
2023-01-19T05:44:29.575Z,48.45
2023-01-19T05:45:28.376Z,48.26
2023-01-19T05:46:25.824Z,48.52
2023-01-19T05:47:22.613Z,48.44
2023-01-19T05:48:19.396Z,48.66
2023-01-19T05:49:16.342Z,48.43
2023-01-19T05:50:13.104Z,47.57
2023-01-19T05:51:09.944Z,47.92
2023-01-19T05:52:06.768Z,47.38
2023-01-19T05:53:04.101Z,47.83
2023-01-19T05:54:07.993Z,48.03
2023-01-19T05:55:05.148Z,48.06
2023-01-19T05:56:05.153Z,48.21
2023-01-19T05:57:03.528Z,48.10
2023-01-19T05:58:00.495Z,47.99
2023-01-19T05:58:57.607Z,47.59
2023-01-19T05:59:54.733Z,47.73
2023-01-19T06:00:51.680Z,47.65
2023-01-19T06:01:48.492Z,47.51
2023-01-19T06:02:47.901Z,47.35
2023-01-19T06:03:44.679Z,46.81
2023-01-19T06:04:41.547Z,46.82
2023-01-19T06:05:39.619Z,46.81
2023-01-19T06:06:36.433Z,46.93
2023-01-19T06:07:33.180Z,47.00
2023-01-19T06:08:31.008Z,47.26
2023-01-19T06:09:29.062Z,47.76
2023-01-19T06:10:25.836Z,47.62
2023-01-19T06:11:22.729Z,47.59
2023-01-19T06:12:19.881Z,47.83
2023-01-19T06:13:17.591Z,47.82
2023-01-19T06:14:14.879Z,47.68
2023-01-19T06:15:12.907Z,48.07
2023-01-19T06:16:11.769Z,47.78
2023-01-19T06:17:08.663Z,47.26
2023-01-19T06:18:05.614Z,46.93
2023-01-19T06:19:02.424Z,47.23
2023-01-19T06:19:59.301Z,47.41
2023-01-19T06:20:58.930Z,47.92
2023-01-19T06:21:55.660Z,48.28
2023-01-19T06:22:52.505Z,47.74
2023-01-19T06:23:49.504Z,47.77
2023-01-19T06:24:46.893Z,48.28
2023-01-19T06:25:43.840Z,48.34
2023-01-19T06:26:40.906Z,48.09
2023-01-19T06:27:56.176Z,48.33
2023-01-19T06:28:52.947Z,47.72
2023-01-19T06:29:49.663Z,47.46
2023-01-19T06:30:49.988Z,47.43
2023-01-19T06:31:46.798Z,47.34
2023-01-19T06:32:43.715Z,47.37
2023-01-19T06:33:40.539Z,47.61
2023-01-19T06:34:38.512Z,46.93
2023-01-19T06:35:35.992Z,47.51
2023-01-19T06:36:32.931Z,47.41
2023-01-19T06:37:30.777Z,47.06
2023-01-19T06:38:28.375Z,47.68
2023-01-19T06:39:25.103Z,47.32
2023-01-19T06:40:21.856Z,47.22
2023-01-19T06:41:18.626Z,47.05
2023-01-19T06:42:15.488Z,47.61
2023-01-19T06:43:13.012Z,47.64
2023-01-19T06:44:09.773Z,47.39
2023-01-19T06:45:07.329Z,47.73
2023-01-19T06:46:04.816Z,47.35
2023-01-19T06:47:15.417Z,47.86
2023-01-19T06:48:13.336Z,47.77
2023-01-19T06:49:10.151Z,48.49
2023-01-19T06:50:07.252Z,48.88
2023-01-19T06:51:05.209Z,48.74
2023-01-19T06:52:01.938Z,49.09
2023-01-19T06:52:59.066Z,48.69
2023-01-19T06:53:56.096Z,48.02
2023-01-19T06:54:52.879Z,48.26
2023-01-19T06:55:49.945Z,48.36
2023-01-19T06:56:47.229Z,48.56
2023-01-19T06:57:44.829Z,48.70
2023-01-19T06:58:42.719Z,48.94
2023-01-19T06:59:39.723Z,48.63
2023-01-19T07:00:36.971Z,48.09
2023-01-19T07:01:33.908Z,48.67
2023-01-19T07:02:30.910Z,48.42
2023-01-19T07:03:27.828Z,48.45
2023-01-19T07:04:25.672Z,48.48
2023-01-19T07:05:23.017Z,48.69
2023-01-19T07:06:19.833Z,48.44
2023-01-19T07:07:16.828Z,48.19
2023-01-19T07:08:15.444Z,48.11
2023-01-19T07:09:14.208Z,48.63
2023-01-19T07:10:15.676Z,48.47
2023-01-19T07:11:25.006Z,48.66
2023-01-19T07:12:27.618Z,48.37
2023-01-19T07:13:24.436Z,48.70
2023-01-19T07:14:21.284Z,48.35
2023-01-19T07:15:22.660Z,47.68
2023-01-19T07:16:22.505Z,47.65
2023-01-19T07:17:22.287Z,47.59
2023-01-19T07:18:19.163Z,47.24
2023-01-19T07:19:16.060Z,47.08
2023-01-19T07:20:14.511Z,47.44
2023-01-19T07:21:11.409Z,46.91
2023-01-19T07:22:08.087Z,47.45
2023-01-19T07:23:04.976Z,46.81
2023-01-19T07:24:01.763Z,46.79
2023-01-19T07:24:58.899Z,47.02
2023-01-19T07:25:56.307Z,46.69
2023-01-19T07:26:53.089Z,46.40
2023-01-19T07:27:49.834Z,45.79
2023-01-19T07:28:49.831Z,46.02
2023-01-19T07:29:46.614Z,45.39
2023-01-19T07:30:46.247Z,45.63
2023-01-19T07:31:43.239Z,45.79
2023-01-19T07:32:40.235Z,45.32
2023-01-19T07:33:37.164Z,45.56
2023-01-19T07:34:34.793Z,45.57
2023-01-19T07:35:31.968Z,45.75
2023-01-19T07:36:28.812Z,45.56
2023-01-19T07:37:28.234Z,45.86
2023-01-19T07:38:25.323Z,45.67
2023-01-19T07:39:22.426Z,45.81
2023-01-19T07:40:23.997Z,45.38
2023-01-19T07:41:20.957Z,46.13
2023-01-19T07:42:17.863Z,45.38
2023-01-19T07:43:15.928Z,45.65
2023-01-19T07:44:12.718Z,45.04
2023-01-19T07:45:09.956Z,45.00
2023-01-19T07:46:08.314Z,45.16
2023-01-19T07:47:07.544Z,44.76
2023-01-19T07:48:04.464Z,44.78
2023-01-19T07:49:01.245Z,45.45
2023-01-19T07:49:58.097Z,45.02
2023-01-19T07:51:00.793Z,44.94
2023-01-19T07:51:57.680Z,44.92
2023-01-19T07:52:54.485Z,44.58
2023-01-19T07:53:51.953Z,45.14
2023-01-19T07:54:50.987Z,44.65
2023-01-19T07:55:56.510Z,44.83
2023-01-19T07:56:56.570Z,44.24
2023-01-19T07:57:53.711Z,44.08
2023-01-19T07:58:52.753Z,43.92
2023-01-19T07:59:49.676Z,44.02
2023-01-19T08:00:46.812Z,44.08
2023-01-19T08:01:43.856Z,44.31
2023-01-19T08:02:41.397Z,43.72
2023-01-19T08:03:39.005Z,43.57
2023-01-19T08:04:36.147Z,43.74
2023-01-19T08:05:33.976Z,43.65
2023-01-19T08:06:36.094Z,43.68
2023-01-19T08:07:34.144Z,43.28
2023-01-19T08:08:33.995Z,42.91
2023-01-19T08:09:30.765Z,42.43
2023-01-19T08:10:29.175Z,42.92
2023-01-19T08:11:28.409Z,42.72
2023-01-19T08:12:25.601Z,42.47
2023-01-19T08:13:22.396Z,42.64
2023-01-19T08:14:26.104Z,42.54
2023-01-19T08:15:24.769Z,42.84
2023-01-19T08:16:21.773Z,42.50
2023-01-19T08:17:19.548Z,42.22
2023-01-19T08:18:16.700Z,41.82
2023-01-19T08:19:13.783Z,41.80
2023-01-19T08:20:11.258Z,41.71
2023-01-19T08:21:10.442Z,42.33
2023-01-19T08:22:07.498Z,41.48
2023-01-19T08:23:05.533Z,42.04
2023-01-19T08:24:02.531Z,40.85
2023-01-19T08:24:59.388Z,41.36
2023-01-19T08:25:56.135Z,41.22
2023-01-19T08:27:01.788Z,41.35
2023-01-19T08:27:58.611Z,40.53
2023-01-19T08:28:58.026Z,40.91
2023-01-19T08:30:05.631Z,40.42
2023-01-19T08:31:25.470Z,40.59
2023-01-19T08:32:22.601Z,40.77
2023-01-19T08:33:23.516Z,40.65
2023-01-19T08:34:20.363Z,41.10
2023-01-19T08:35:22.658Z,40.86
2023-01-19T08:36:20.368Z,40.56
2023-01-19T08:37:17.074Z,40.79
2023-01-19T08:38:13.935Z,40.91
2023-01-19T08:39:14.691Z,41.36
2023-01-19T08:40:12.108Z,40.65
2023-01-19T08:41:09.101Z,41.01
2023-01-19T08:42:05.950Z,40.58
2023-01-19T08:43:07.864Z,41.09
2023-01-19T08:44:04.990Z,40.53
2023-01-19T08:45:01.908Z,40.58
2023-01-19T08:45:58.752Z,40.87
2023-01-19T08:46:56.795Z,41.09
2023-01-19T08:47:56.361Z,40.67
2023-01-19T08:48:53.559Z,40.64
2023-01-19T08:49:50.518Z,40.71
2023-01-19T08:50:47.827Z,40.27
2023-01-19T08:51:46.973Z,40.32
2023-01-19T08:52:43.775Z,39.95
2023-01-19T08:53:41.529Z,40.53
2023-01-19T08:54:38.268Z,40.49
2023-01-19T08:55:44.345Z,40.66
2023-01-19T08:56:41.233Z,40.48
2023-01-19T08:57:38.054Z,40.20
2023-01-19T08:58:34.829Z,40.79
2023-01-19T08:59:31.622Z,40.53
2023-01-19T09:00:28.400Z,40.69
2023-01-19T09:01:25.640Z,40.75
2023-01-19T09:02:22.729Z,40.90
2023-01-19T09:03:22.644Z,40.76
2023-01-19T09:04:19.541Z,40.39
2023-01-19T09:05:16.771Z,40.64
2023-01-19T09:06:17.279Z,40.16
2023-01-19T09:07:14.053Z,40.70
2023-01-19T09:08:13.802Z,40.46
2023-01-19T09:09:10.555Z,40.86
2023-01-19T09:10:08.435Z,40.95
2023-01-19T09:11:07.811Z,40.22
2023-01-19T09:12:04.759Z,40.46
2023-01-19T09:13:11.027Z,40.00
2023-01-19T09:14:08.456Z,40.13
2023-01-19T09:15:05.909Z,40.02
2023-01-19T09:16:11.484Z,40.39
2023-01-19T09:17:08.357Z,40.27
2023-01-19T09:18:07.181Z,40.35
2023-01-19T09:19:05.417Z,40.35
2023-01-19T09:20:13.303Z,40.05
2023-01-19T09:21:10.222Z,40.28
2023-01-19T09:22:07.011Z,40.28
2023-01-19T09:23:04.079Z,40.54
2023-01-19T09:24:00.942Z,40.66
2023-01-19T09:24:58.663Z,40.54
2023-01-19T09:26:01.645Z,41.27
2023-01-19T09:26:58.531Z,40.97
2023-01-19T09:27:56.287Z,41.33
2023-01-19T09:28:53.077Z,40.78
2023-01-19T09:29:52.326Z,41.10
2023-01-19T09:30:49.415Z,40.77
2023-01-19T09:31:46.378Z,39.83
2023-01-19T09:32:43.420Z,40.72
2023-01-19T09:33:40.195Z,40.70
2023-01-19T09:34:36.912Z,40.29
2023-01-19T09:35:35.022Z,40.42
2023-01-19T09:36:32.497Z,40.77
2023-01-19T09:37:29.371Z,40.88
2023-01-19T09:38:27.058Z,40.76
2023-01-19T09:39:23.901Z,40.79
2023-01-19T09:40:21.146Z,40.63
2023-01-19T09:41:22.655Z,40.95
2023-01-19T09:42:44.547Z,40.45
2023-01-19T09:43:57.689Z,40.84
2023-01-19T09:44:54.693Z,40.55
2023-01-19T09:45:59.125Z,40.66
2023-01-19T09:46:56.004Z,40.26
2023-01-19T09:47:55.795Z,40.10
2023-01-19T09:48:59.625Z,40.06
2023-01-19T09:50:04.040Z,40.58
2023-01-19T09:51:10.601Z,40.69
2023-01-19T09:52:15.081Z,40.12
2023-01-19T09:53:28.100Z,39.95
2023-01-19T09:54:49.861Z,40.05
2023-01-19T09:55:46.702Z,39.72
2023-01-19T09:56:46.140Z,40.41
2023-01-19T09:57:43.090Z,39.81
2023-01-19T09:58:40.945Z,40.09
2023-01-19T09:59:38.939Z,40.30
2023-01-19T10:00:35.878Z,40.30
2023-01-19T10:01:40.371Z,39.87
2023-01-19T10:02:46.795Z,40.14
2023-01-19T10:03:43.792Z,39.84
2023-01-19T10:04:41.610Z,40.31
2023-01-19T10:05:55.132Z,40.04
2023-01-19T10:07:13.870Z,40.42
2023-01-19T10:08:31.955Z,39.69
2023-01-19T10:09:32.361Z,39.99
2023-01-19T10:10:32.131Z,39.66
2023-01-19T10:11:57.440Z,40.51
2023-01-19T10:13:22.804Z,40.20
2023-01-19T10:14:32.663Z,39.78
2023-01-19T10:15:47.020Z,39.95
2023-01-19T10:17:22.313Z,39.95
2023-01-19T10:18:48.653Z,40.21
2023-01-19T10:19:53.338Z,39.91
2023-01-19T10:20:54.497Z,39.87
2023-01-19T10:21:55.212Z,39.59
2023-01-19T10:22:52.248Z,39.81
2023-01-19T10:24:16.788Z,39.90
2023-01-19T10:25:21.188Z,39.86
2023-01-19T10:26:30.063Z,40.07
2023-01-19T10:27:31.504Z,40.02
2023-01-19T10:28:28.674Z,40.26
2023-01-19T10:29:28.342Z,40.01
2023-01-19T10:30:30.261Z,39.21
2023-01-19T10:31:27.208Z,39.87
2023-01-19T10:32:28.203Z,40.08
2023-01-19T10:33:25.472Z,39.48
2023-01-19T10:34:29.333Z,39.32
2023-01-19T10:35:26.156Z,39.63
2023-01-19T10:36:36.029Z,39.96
2023-01-19T10:37:37.913Z,39.63
2023-01-19T10:38:35.553Z,39.27
2023-01-19T10:39:35.770Z,39.12
2023-01-19T10:41:10.472Z,39.71
2023-01-19T10:42:15.624Z,40.45
2023-01-19T10:43:45.730Z,40.74
2023-01-19T10:44:45.800Z,40.83
2023-01-19T10:45:42.883Z,40.45
2023-01-19T10:46:45.888Z,39.87
2023-01-19T10:47:45.994Z,40.02
2023-01-19T10:48:44.687Z,39.29
2023-01-19T10:49:44.655Z,39.95
2023-01-19T10:50:42.347Z,40.30
2023-01-19T10:51:49.072Z,40.46
2023-01-19T10:52:51.357Z,40.12
2023-01-19T10:54:04.385Z,39.91
2023-01-19T10:55:05.865Z,39.92
2023-01-19T10:56:27.068Z,39.61
2023-01-19T10:57:38.356Z,39.67
2023-01-19T10:58:35.323Z,39.42
2023-01-19T10:59:47.061Z,39.60
2023-01-19T11:00:44.012Z,39.83
2023-01-19T11:01:41.089Z,40.53
2023-01-19T11:02:49.229Z,40.49
2023-01-19T11:03:46.614Z,40.67
2023-01-19T11:04:47.267Z,40.44
2023-01-19T11:05:45.033Z,40.25
2023-01-19T11:06:41.827Z,40.90
2023-01-19T11:07:38.672Z,40.76
2023-01-19T11:08:35.501Z,39.98
2023-01-19T11:09:35.204Z,40.07
2023-01-19T11:10:33.417Z,40.62
2023-01-19T11:11:46.573Z,40.61
2023-01-19T11:13:07.756Z,40.28
2023-01-19T11:14:12.876Z,40.34
2023-01-19T11:15:24.860Z,40.65
2023-01-19T11:16:31.792Z,40.42
2023-01-19T11:17:28.985Z,40.51
2023-01-19T11:18:38.957Z,40.82
2023-01-19T11:19:36.059Z,40.66
2023-01-19T11:20:49.866Z,40.25
2023-01-19T11:21:46.742Z,40.20
2023-01-19T11:22:43.606Z,39.48
2023-01-19T11:23:51.172Z,40.01
2023-01-19T11:24:51.731Z,40.11
2023-01-19T11:25:51.513Z,40.01
2023-01-19T11:27:02.853Z,39.64
2023-01-19T11:28:01.004Z,39.75
2023-01-19T11:29:01.133Z,39.79
2023-01-19T11:30:16.997Z,39.99
2023-01-19T11:31:13.866Z,39.83
2023-01-19T11:32:21.260Z,39.89
2023-01-19T11:33:36.121Z,40.02
2023-01-19T11:34:39.294Z,40.06
2023-01-19T11:35:39.007Z,39.71
2023-01-19T11:36:36.756Z,39.58
2023-01-19T11:37:34.628Z,39.41
2023-01-19T11:38:32.548Z,40.17
2023-01-19T11:39:46.486Z,40.15
2023-01-19T11:40:54.925Z,40.23
2023-01-19T11:41:57.161Z,40.94
2023-01-19T11:42:53.973Z,40.52
2023-01-19T11:43:55.123Z,40.39
2023-01-19T11:45:24.334Z,40.13
2023-01-19T11:46:24.551Z,40.44
2023-01-19T11:47:38.975Z,40.14
2023-01-19T11:49:03.319Z,39.61
2023-01-19T11:50:22.947Z,39.48
2023-01-19T11:51:23.241Z,39.64
2023-01-19T11:52:34.290Z,39.47
2023-01-19T11:53:34.163Z,39.74
2023-01-19T11:54:41.815Z,39.51
2023-01-19T11:55:52.647Z,39.63
2023-01-19T11:57:02.985Z,39.55
2023-01-19T11:58:00.311Z,39.72
2023-01-19T11:58:57.867Z,39.27
2023-01-19T11:59:55.614Z,39.07
2023-01-19T12:01:04.826Z,38.90
2023-01-19T12:02:27.147Z,39.21
2023-01-19T12:03:27.229Z,38.95
2023-01-19T12:04:41.313Z,39.05
2023-01-19T12:05:43.042Z,38.83
2023-01-19T12:06:47.684Z,38.73
2023-01-19T12:07:48.461Z,38.76
2023-01-19T12:08:57.936Z,39.35
2023-01-19T12:10:07.269Z,38.80
2023-01-19T12:11:08.950Z,38.66
2023-01-19T12:12:32.721Z,38.71
2023-01-19T12:13:32.042Z,39.35
2023-01-19T12:14:51.368Z,38.76
2023-01-19T12:15:55.552Z,38.67
2023-01-19T12:16:58.327Z,38.60
2023-01-19T12:18:01.246Z,38.93
2023-01-19T12:19:18.273Z,39.31
2023-01-19T12:20:31.648Z,38.98
2023-01-19T12:21:28.518Z,38.98
2023-01-19T12:22:29.993Z,38.35
2023-01-19T12:24:07.875Z,38.66
2023-01-19T12:25:23.578Z,38.48
2023-01-19T12:26:37.057Z,38.42
2023-01-19T12:27:46.398Z,39.04
2023-01-19T12:28:48.533Z,38.73
2023-01-19T12:29:46.739Z,38.82
2023-01-19T12:30:44.854Z,38.20
2023-01-19T12:31:45.383Z,38.61
2023-01-19T12:32:43.445Z,39.00
2023-01-19T12:33:41.489Z,39.16
2023-01-19T12:34:42.945Z,39.28
2023-01-19T12:35:54.731Z,38.87
2023-01-19T12:36:56.058Z,38.34
2023-01-19T12:37:53.031Z,38.68
2023-01-19T12:39:07.038Z,38.93
2023-01-19T12:40:22.315Z,38.62
2023-01-19T12:41:48.205Z,38.82
2023-01-19T12:42:57.016Z,38.72
2023-01-19T12:44:12.323Z,38.78
2023-01-19T12:45:17.182Z,39.36
2023-01-19T12:46:31.010Z,39.07
2023-01-19T12:47:28.055Z,38.99
2023-01-19T12:48:27.349Z,38.49
2023-01-19T12:49:39.128Z,39.12
2023-01-19T12:50:38.301Z,38.65
2023-01-19T12:51:37.383Z,38.29
2023-01-19T12:52:41.642Z,38.52
2023-01-19T12:53:41.424Z,38.19
2023-01-19T12:54:43.674Z,39.15
2023-01-19T12:55:49.615Z,39.08
2023-01-19T12:56:46.443Z,38.97
2023-01-19T12:58:02.873Z,39.55
2023-01-19T12:59:01.133Z,39.30
2023-01-19T13:00:25.413Z,39.27
2023-01-19T13:01:24.929Z,38.86
2023-01-19T13:02:24.731Z,39.19
2023-01-19T13:03:27.707Z,39.03
2023-01-19T13:04:33.637Z,39.04
2023-01-19T13:05:39.337Z,40.44
2023-01-19T13:07:00.359Z,39.26
2023-01-19T13:08:02.973Z,39.50